sensor_id;sensor_type;location;lat;lon;timestamp;temperature;humidity
40556;DHT22;26250;45.422;11.100;2022-08-18T00:01:04;25.60;82.60
40556;DHT22;26250;45.422;11.100;2022-08-18T00:03:31;25.60;82.40
40556;DHT22;26250;45.422;11.100;2022-08-18T00:06:18;25.40;83.60
40556;DHT22;26250;45.422;11.100;2022-08-18T00:08:46;25.30;83.10
40556;DHT22;26250;45.422;11.100;2022-08-18T00:11:13;25.40;83.00
40556;DHT22;26250;45.422;11.100;2022-08-18T00:13:40;25.50;82.40
40556;DHT22;26250;45.422;11.100;2022-08-18T00:16:07;25.50;82.20
40556;DHT22;26250;45.422;11.100;2022-08-18T00:18:34;25.60;81.80
40556;DHT22;26250;45.422;11.100;2022-08-18T00:21:01;25.50;80.30
40556;DHT22;26250;45.422;11.100;2022-08-18T00:23:28;25.50;79.50
40556;DHT22;26250;45.422;11.100;2022-08-18T00:25:58;25.50;79.10
40556;DHT22;26250;45.422;11.100;2022-08-18T00:28:26;25.50;79.00
40556;DHT22;26250;45.422;11.100;2022-08-18T00:30:52;25.60;79.60
40556;DHT22;26250;45.422;11.100;2022-08-18T00:33:20;25.60;79.50
40556;DHT22;26250;45.422;11.100;2022-08-18T00:35:48;25.50;80.70
40556;DHT22;26250;45.422;11.100;2022-08-18T00:38:15;25.30;81.60
40556;DHT22;26250;45.422;11.100;2022-08-18T00:40:53;25.10;82.00
40556;DHT22;26250;45.422;11.100;2022-08-18T00:43:45;25.10;81.80
40556;DHT22;26250;45.422;11.100;2022-08-18T00:46:23;24.90;82.80
40556;DHT22;26250;45.422;11.100;2022-08-18T00:48:54;24.90;83.00
40556;DHT22;26250;45.422;11.100;2022-08-18T00:51:40;24.90;82.70
40556;DHT22;26250;45.422;11.100;2022-08-18T00:54:16;24.90;82.10
40556;DHT22;26250;45.422;11.100;2022-08-18T00:56:52;24.80;82.00
40556;DHT22;26250;45.422;11.100;2022-08-18T01:02:29;24.70;82.40
40556;DHT22;26250;45.422;11.100;2022-08-18T01:07:38;24.80;82.10
40556;DHT22;26250;45.422;11.100;2022-08-18T01:10:09;24.90;81.50
40556;DHT22;26250;45.422;11.100;2022-08-18T01:12:36;25.00;82.00
40556;DHT22;26250;45.422;11.100;2022-08-18T01:15:13;25.10;82.20
40556;DHT22;26250;45.422;11.100;2022-08-18T01:17:59;24.80;82.30
40556;DHT22;26250;45.422;11.100;2022-08-18T01:23:46;24.60;82.80
40556;DHT22;26250;45.422;11.100;2022-08-18T01:26:16;24.60;82.80
40556;DHT22;26250;45.422;11.100;2022-08-18T01:28:44;24.60;82.70
40556;DHT22;26250;45.422;11.100;2022-08-18T01:31:32;24.50;82.80
40556;DHT22;26250;45.422;11.100;2022-08-18T01:34:00;24.60;82.30
40556;DHT22;26250;45.422;11.100;2022-08-18T01:36:27;24.60;82.40
40556;DHT22;26250;45.422;11.100;2022-08-18T01:38:55;24.60;82.90
40556;DHT22;26250;45.422;11.100;2022-08-18T01:41:22;24.40;83.20
40556;DHT22;26250;45.422;11.100;2022-08-18T01:43:57;24.50;83.20
40556;DHT22;26250;45.422;11.100;2022-08-18T01:46:26;24.60;83.40
40556;DHT22;26250;45.422;11.100;2022-08-18T01:48:54;24.80;82.00
40556;DHT22;26250;45.422;11.100;2022-08-18T01:51:21;24.70;82.20
40556;DHT22;26250;45.422;11.100;2022-08-18T01:54:05;24.60;82.60
40556;DHT22;26250;45.422;11.100;2022-08-18T01:56:32;24.50;83.10
40556;DHT22;26250;45.422;11.100;2022-08-18T01:58:59;24.60;82.60
40556;DHT22;26250;45.422;11.100;2022-08-18T02:01:25;24.70;82.30
40556;DHT22;26250;45.422;11.100;2022-08-18T02:04:02;24.80;82.70
40556;DHT22;26250;45.422;11.100;2022-08-18T02:06:53;24.70;83.20
40556;DHT22;26250;45.422;11.100;2022-08-18T02:09:22;24.70;83.40
40556;DHT22;26250;45.422;11.100;2022-08-18T02:11:50;24.70;83.80
40556;DHT22;26250;45.422;11.100;2022-08-18T02:14:22;24.70;83.80
40556;DHT22;26250;45.422;11.100;2022-08-18T02:16:55;24.70;83.80
40556;DHT22;26250;45.422;11.100;2022-08-18T02:19:41;24.60;83.40
40556;DHT22;26250;45.422;11.100;2022-08-18T02:22:11;24.50;83.70
40556;DHT22;26250;45.422;11.100;2022-08-18T02:24:39;24.50;83.90
40556;DHT22;26250;45.422;11.100;2022-08-18T02:27:08;24.50;84.20
40556;DHT22;26250;45.422;11.100;2022-08-18T02:29:35;24.60;84.40
40556;DHT22;26250;45.422;11.100;2022-08-18T02:32:03;24.70;84.30
40556;DHT22;26250;45.422;11.100;2022-08-18T02:34:30;24.80;84.50
40556;DHT22;26250;45.422;11.100;2022-08-18T02:37:01;24.90;85.50
40556;DHT22;26250;45.422;11.100;2022-08-18T02:39:28;25.00;85.70
40556;DHT22;26250;45.422;11.100;2022-08-18T02:41:55;24.90;85.90
40556;DHT22;26250;45.422;11.100;2022-08-18T02:44:21;25.00;85.80
40556;DHT22;26250;45.422;11.100;2022-08-18T02:46:53;25.00;85.50
40556;DHT22;26250;45.422;11.100;2022-08-18T02:49:20;25.10;86.20
40556;DHT22;26250;45.422;11.100;2022-08-18T02:51:48;25.10;86.80
40556;DHT22;26250;45.422;11.100;2022-08-18T02:54:15;25.10;87.20
40556;DHT22;26250;45.422;11.100;2022-08-18T02:56:42;25.10;87.60
40556;DHT22;26250;45.422;11.100;2022-08-18T02:59:15;25.00;88.60
40556;DHT22;26250;45.422;11.100;2022-08-18T03:01:46;24.80;90.20
40556;DHT22;26250;45.422;11.100;2022-08-18T03:04:18;24.10;91.40
40556;DHT22;26250;45.422;11.100;2022-08-18T03:06:53;24.20;91.90
40556;DHT22;26250;45.422;11.100;2022-08-18T03:09:21;24.20;92.40
40556;DHT22;26250;45.422;11.100;2022-08-18T03:11:48;24.00;92.80
40556;DHT22;26250;45.422;11.100;2022-08-18T03:14:15;23.80;93.70
40556;DHT22;26250;45.422;11.100;2022-08-18T03:16:45;23.60;94.10
40556;DHT22;26250;45.422;11.100;2022-08-18T03:19:23;23.50;94.30
40556;DHT22;26250;45.422;11.100;2022-08-18T03:21:50;23.40;94.50
40556;DHT22;26250;45.422;11.100;2022-08-18T03:24:19;23.30;95.00
40556;DHT22;26250;45.422;11.100;2022-08-18T03:26:49;23.20;95.10
40556;DHT22;26250;45.422;11.100;2022-08-18T03:29:17;23.30;94.20
40556;DHT22;26250;45.422;11.100;2022-08-18T03:31:44;23.30;93.70
40556;DHT22;26250;45.422;11.100;2022-08-18T03:34:16;23.50;94.20
40556;DHT22;26250;45.422;11.100;2022-08-18T03:36:46;23.50;95.10
40556;DHT22;26250;45.422;11.100;2022-08-18T03:39:14;23.40;96.80
40556;DHT22;26250;45.422;11.100;2022-08-18T03:41:42;23.10;96.60
40556;DHT22;26250;45.422;11.100;2022-08-18T03:44:32;23.00;98.00
40556;DHT22;26250;45.422;11.100;2022-08-18T03:46:59;23.00;97.90
40556;DHT22;26250;45.422;11.100;2022-08-18T03:49:30;22.90;96.70
40556;DHT22;26250;45.422;11.100;2022-08-18T03:51:59;22.90;96.10
40556;DHT22;26250;45.422;11.100;2022-08-18T03:54:28;22.80;95.50
40556;DHT22;26250;45.422;11.100;2022-08-18T03:56:57;22.70;94.10
40556;DHT22;26250;45.422;11.100;2022-08-18T03:59:26;22.80;94.00
40556;DHT22;26250;45.422;11.100;2022-08-18T04:01:54;22.70;93.60
40556;DHT22;26250;45.422;11.100;2022-08-18T04:04:24;22.70;94.30
40556;DHT22;26250;45.422;11.100;2022-08-18T04:07:00;22.70;93.90
40556;DHT22;26250;45.422;11.100;2022-08-18T04:09:30;22.70;93.40
40556;DHT22;26250;45.422;11.100;2022-08-18T04:12:04;22.70;92.60
40556;DHT22;26250;45.422;11.100;2022-08-18T04:14:41;22.80;91.80
40556;DHT22;26250;45.422;11.100;2022-08-18T04:17:08;22.90;90.80
40556;DHT22;26250;45.422;11.100;2022-08-18T04:19:35;22.80;91.20
40556;DHT22;26250;45.422;11.100;2022-08-18T04:22:04;22.90;91.40
40556;DHT22;26250;45.422;11.100;2022-08-18T04:24:32;23.00;91.30
40556;DHT22;26250;45.422;11.100;2022-08-18T04:27:02;22.90;91.10
40556;DHT22;26250;45.422;11.100;2022-08-18T04:29:30;23.00;92.60
40556;DHT22;26250;45.422;11.100;2022-08-18T04:32:00;23.00;92.70
40556;DHT22;26250;45.422;11.100;2022-08-18T04:34:31;23.00;91.80
40556;DHT22;26250;45.422;11.100;2022-08-18T04:36:59;23.10;91.90
40556;DHT22;26250;45.422;11.100;2022-08-18T04:39:28;23.20;92.20
40556;DHT22;26250;45.422;11.100;2022-08-18T04:41:55;23.30;92.00
40556;DHT22;26250;45.422;11.100;2022-08-18T04:44:22;23.40;92.20
40556;DHT22;26250;45.422;11.100;2022-08-18T04:46:51;23.40;92.50
40556;DHT22;26250;45.422;11.100;2022-08-18T04:49:23;23.40;92.40
40556;DHT22;26250;45.422;11.100;2022-08-18T04:51:53;23.40;92.10
40556;DHT22;26250;45.422;11.100;2022-08-18T04:55:04;23.40;92.00
40556;DHT22;26250;45.422;11.100;2022-08-18T04:57:31;23.40;91.80
40556;DHT22;26250;45.422;11.100;2022-08-18T05:00:01;23.40;91.40
40556;DHT22;26250;45.422;11.100;2022-08-18T05:02:28;23.50;91.20
40556;DHT22;26250;45.422;11.100;2022-08-18T05:04:56;23.60;90.80
40556;DHT22;26250;45.422;11.100;2022-08-18T05:07:23;23.50;91.30
40556;DHT22;26250;45.422;11.100;2022-08-18T05:09:50;23.60;91.30
40556;DHT22;26250;45.422;11.100;2022-08-18T05:12:21;23.60;91.20
40556;DHT22;26250;45.422;11.100;2022-08-18T05:14:51;23.70;91.30
40556;DHT22;26250;45.422;11.100;2022-08-18T05:17:19;23.70;91.70
40556;DHT22;26250;45.422;11.100;2022-08-18T05:19:46;23.70;91.70
40556;DHT22;26250;45.422;11.100;2022-08-18T05:22:18;23.60;91.80
40556;DHT22;26250;45.422;11.100;2022-08-18T05:24:54;23.60;92.10
40556;DHT22;26250;45.422;11.100;2022-08-18T05:27:21;23.60;92.40
40556;DHT22;26250;45.422;11.100;2022-08-18T05:29:48;23.50;92.60
40556;DHT22;26250;45.422;11.100;2022-08-18T05:32:17;23.50;92.70
40556;DHT22;26250;45.422;11.100;2022-08-18T05:35:11;23.60;92.50
40556;DHT22;26250;45.422;11.100;2022-08-18T05:40:24;23.60;92.50
40556;DHT22;26250;45.422;11.100;2022-08-18T05:42:53;23.60;92.50
40556;DHT22;26250;45.422;11.100;2022-08-18T05:45:23;23.70;92.70
40556;DHT22;26250;45.422;11.100;2022-08-18T05:47:57;23.80;92.20
40556;DHT22;26250;45.422;11.100;2022-08-18T05:50:26;24.00;91.80
40556;DHT22;26250;45.422;11.100;2022-08-18T05:53:07;24.10;91.20
40556;DHT22;26250;45.422;11.100;2022-08-18T05:58:38;24.00;91.00
40556;DHT22;26250;45.422;11.100;2022-08-18T06:01:20;24.00;91.10
40556;DHT22;26250;45.422;11.100;2022-08-18T06:06:23;23.90;90.30
40556;DHT22;26250;45.422;11.100;2022-08-18T06:11:44;23.80;90.90
40556;DHT22;26250;45.422;11.100;2022-08-18T06:14:11;23.80;90.90
40556;DHT22;26250;45.422;11.100;2022-08-18T06:19:29;23.80;90.30
40556;DHT22;26250;45.422;11.100;2022-08-18T06:22:36;23.80;90.60
40556;DHT22;26250;45.422;11.100;2022-08-18T06:28:15;23.80;90.60
40556;DHT22;26250;45.422;11.100;2022-08-18T06:31:01;23.80;90.90
40556;DHT22;26250;45.422;11.100;2022-08-18T06:41:46;24.00;90.30
40556;DHT22;26250;45.422;11.100;2022-08-18T06:44:48;24.10;90.20
40556;DHT22;26250;45.422;11.100;2022-08-18T06:50:23;24.30;90.30
40556;DHT22;26250;45.422;11.100;2022-08-18T06:53:02;24.30;89.10
40556;DHT22;26250;45.422;11.100;2022-08-18T06:55:39;24.30;89.80
40556;DHT22;26250;45.422;11.100;2022-08-18T07:01:04;24.30;89.60
40556;DHT22;26250;45.422;11.100;2022-08-18T07:08:49;24.30;90.00
40556;DHT22;26250;45.422;11.100;2022-08-18T07:11:29;24.40;89.20
40556;DHT22;26250;45.422;11.100;2022-08-18T07:14:11;24.40;89.70
40556;DHT22;26250;45.422;11.100;2022-08-18T07:16:43;24.60;90.10
40556;DHT22;26250;45.422;11.100;2022-08-18T07:19:28;24.50;91.20
40556;DHT22;26250;45.422;11.100;2022-08-18T07:22:11;24.10;91.60
40556;DHT22;26250;45.422;11.100;2022-08-18T07:24:42;23.90;91.60
40556;DHT22;26250;45.422;11.100;2022-08-18T07:27:12;23.90;91.80
40556;DHT22;26250;45.422;11.100;2022-08-18T07:29:57;24.10;92.20
40556;DHT22;26250;45.422;11.100;2022-08-18T07:32:31;24.00;92.40
40556;DHT22;26250;45.422;11.100;2022-08-18T07:35:04;23.60;93.70
40556;DHT22;26250;45.422;11.100;2022-08-18T07:37:48;23.70;94.30
40556;DHT22;26250;45.422;11.100;2022-08-18T07:43:01;23.20;96.20
40556;DHT22;26250;45.422;11.100;2022-08-18T07:45:37;23.10;96.40
40556;DHT22;26250;45.422;11.100;2022-08-18T07:53:52;23.10;96.20
40556;DHT22;26250;45.422;11.100;2022-08-18T07:56:44;23.10;96.40
40556;DHT22;26250;45.422;11.100;2022-08-18T07:59:26;23.00;96.30
40556;DHT22;26250;45.422;11.100;2022-08-18T08:07:49;22.90;95.10
40556;DHT22;26250;45.422;11.100;2022-08-18T08:10:38;22.90;94.20
40556;DHT22;26250;45.422;11.100;2022-08-18T08:13:15;23.10;94.00
40556;DHT22;26250;45.422;11.100;2022-08-18T08:16:15;23.10;92.40
40556;DHT22;26250;45.422;11.100;2022-08-18T08:19:07;23.10;92.40
40556;DHT22;26250;45.422;11.100;2022-08-18T08:22:09;23.10;92.00
40556;DHT22;26250;45.422;11.100;2022-08-18T08:32:35;23.40;92.50
40556;DHT22;26250;45.422;11.100;2022-08-18T08:35:07;23.60;91.00
40556;DHT22;26250;45.422;11.100;2022-08-18T08:38:01;23.60;90.20
40556;DHT22;26250;45.422;11.100;2022-08-18T08:40:58;23.70;90.20
40556;DHT22;26250;45.422;11.100;2022-08-18T08:43:41;23.80;88.60
40556;DHT22;26250;45.422;11.100;2022-08-18T08:46:18;23.80;89.90
40556;DHT22;26250;45.422;11.100;2022-08-18T08:49:05;23.80;90.00
40556;DHT22;26250;45.422;11.100;2022-08-18T08:51:44;23.90;90.10
40556;DHT22;26250;45.422;11.100;2022-08-18T08:54:30;24.00;89.20
40556;DHT22;26250;45.422;11.100;2022-08-18T08:57:01;24.10;89.10
40556;DHT22;26250;45.422;11.100;2022-08-18T08:59:30;24.10;86.30
40556;DHT22;26250;45.422;11.100;2022-08-18T09:10:31;24.40;87.00
40556;DHT22;26250;45.422;11.100;2022-08-18T09:24:48;24.60;87.30
40556;DHT22;26250;45.422;11.100;2022-08-18T09:27:43;24.70;87.00
40556;DHT22;26250;45.422;11.100;2022-08-18T09:30:48;24.80;87.50
40556;DHT22;26250;45.422;11.100;2022-08-18T09:38:59;24.90;88.20
40556;DHT22;26250;45.422;11.100;2022-08-18T09:41:59;24.90;89.00
40556;DHT22;26250;45.422;11.100;2022-08-18T09:49:57;24.60;90.70
40556;DHT22;26250;45.422;11.100;2022-08-18T09:52:58;24.60;90.90
40556;DHT22;26250;45.422;11.100;2022-08-18T09:55:52;24.40;91.30
40556;DHT22;26250;45.422;11.100;2022-08-18T10:06:44;23.70;93.70
40556;DHT22;26250;45.422;11.100;2022-08-18T10:15:17;23.20;93.60
40556;DHT22;26250;45.422;11.100;2022-08-18T10:23:45;23.00;94.60
40556;DHT22;26250;45.422;11.100;2022-08-18T10:29:05;23.00;94.80
40556;DHT22;26250;45.422;11.100;2022-08-18T10:34:48;23.20;94.20
40556;DHT22;26250;45.422;11.100;2022-08-18T10:40:27;22.80;99.90
40556;DHT22;26250;45.422;11.100;2022-08-18T10:42:49;21.80;99.90
40556;DHT22;26250;45.422;11.100;2022-08-18T10:45:36;21.50;99.90
40556;DHT22;26250;45.422;11.100;2022-08-18T10:48:32;21.50;99.90
40556;DHT22;26250;45.422;11.100;2022-08-18T10:51:21;21.50;99.90
40556;DHT22;26250;45.422;11.100;2022-08-18T10:53:59;21.40;99.90
40556;DHT22;26250;45.422;11.100;2022-08-18T10:56:49;21.30;99.90
40556;DHT22;26250;45.422;11.100;2022-08-18T11:04:56;21.70;99.90
40556;DHT22;26250;45.422;11.100;2022-08-18T11:07:29;21.70;99.90
40556;DHT22;26250;45.422;11.100;2022-08-18T11:10:13;21.90;99.90
40556;DHT22;26250;45.422;11.100;2022-08-18T11:13:23;21.90;99.90
40556;DHT22;26250;45.422;11.100;2022-08-18T11:18:37;22.30;99.90
40556;DHT22;26250;45.422;11.100;2022-08-18T11:26:47;22.60;99.90
40556;DHT22;26250;45.422;11.100;2022-08-18T11:29:33;22.60;99.90
40556;DHT22;26250;45.422;11.100;2022-08-18T11:32:10;22.60;99.90
40556;DHT22;26250;45.422;11.100;2022-08-18T11:34:41;22.60;99.90
40556;DHT22;26250;45.422;11.100;2022-08-18T11:37:44;22.80;99.90
40556;DHT22;26250;45.422;11.100;2022-08-18T11:45:52;23.10;99.90
40556;DHT22;26250;45.422;11.100;2022-08-18T11:48:43;23.20;99.90
40556;DHT22;26250;45.422;11.100;2022-08-18T11:54:00;23.40;99.90
40556;DHT22;26250;45.422;11.100;2022-08-18T11:56:30;23.50;99.90
40556;DHT22;26250;45.422;11.100;2022-08-18T11:59:06;23.50;99.90
40556;DHT22;26250;45.422;11.100;2022-08-18T12:01:38;23.50;99.90
40556;DHT22;26250;45.422;11.100;2022-08-18T12:06:51;23.70;99.90
40556;DHT22;26250;45.422;11.100;2022-08-18T12:12:30;23.80;99.90
40556;DHT22;26250;45.422;11.100;2022-08-18T12:15:24;23.90;99.90
40556;DHT22;26250;45.422;11.100;2022-08-18T12:18:10;24.00;99.90
40556;DHT22;26250;45.422;11.100;2022-08-18T12:20:52;24.10;99.90
40556;DHT22;26250;45.422;11.100;2022-08-18T12:23:19;24.10;99.90
40556;DHT22;26250;45.422;11.100;2022-08-18T12:25:46;24.20;99.90
40556;DHT22;26250;45.422;11.100;2022-08-18T12:28:21;24.30;99.90
40556;DHT22;26250;45.422;11.100;2022-08-18T12:30:54;24.40;99.90
40556;DHT22;26250;45.422;11.100;2022-08-18T12:36:27;24.10;99.90
40556;DHT22;26250;45.422;11.100;2022-08-18T12:38:55;24.10;99.90
40556;DHT22;26250;45.422;11.100;2022-08-18T12:41:23;24.10;99.90
40556;DHT22;26250;45.422;11.100;2022-08-18T12:43:50;24.10;99.90
40556;DHT22;26250;45.422;11.100;2022-08-18T12:46:25;24.10;99.90
40556;DHT22;26250;45.422;11.100;2022-08-18T12:48:52;24.10;99.90
40556;DHT22;26250;45.422;11.100;2022-08-18T12:51:19;24.00;99.90
40556;DHT22;26250;45.422;11.100;2022-08-18T12:54:06;24.00;99.90
40556;DHT22;26250;45.422;11.100;2022-08-18T12:56:39;24.10;99.90
40556;DHT22;26250;45.422;11.100;2022-08-18T12:59:08;24.00;99.90
40556;DHT22;26250;45.422;11.100;2022-08-18T13:01:38;24.10;99.90
40556;DHT22;26250;45.422;11.100;2022-08-18T13:04:06;24.20;99.90
40556;DHT22;26250;45.422;11.100;2022-08-18T13:06:44;24.20;99.90
40556;DHT22;26250;45.422;11.100;2022-08-18T13:09:30;24.30;99.90
40556;DHT22;26250;45.422;11.100;2022-08-18T13:12:17;24.30;99.90
40556;DHT22;26250;45.422;11.100;2022-08-18T13:14:46;24.40;99.90
40556;DHT22;26250;45.422;11.100;2022-08-18T13:17:14;24.50;99.90
40556;DHT22;26250;45.422;11.100;2022-08-18T13:20:01;24.60;99.90
40556;DHT22;26250;45.422;11.100;2022-08-18T13:22:30;24.60;99.90
40556;DHT22;26250;45.422;11.100;2022-08-18T13:25:03;24.70;99.90
40556;DHT22;26250;45.422;11.100;2022-08-18T13:27:34;24.80;99.90
40556;DHT22;26250;45.422;11.100;2022-08-18T13:30:07;24.90;99.90
40556;DHT22;26250;45.422;11.100;2022-08-18T13:32:55;25.00;99.40
40556;DHT22;26250;45.422;11.100;2022-08-18T13:35:25;25.10;99.00
40556;DHT22;26250;45.422;11.100;2022-08-18T13:38:01;25.20;99.00
40556;DHT22;26250;45.422;11.100;2022-08-18T13:40:43;25.30;97.50
40556;DHT22;26250;45.422;11.100;2022-08-18T13:43:13;25.40;97.30
40556;DHT22;26250;45.422;11.100;2022-08-18T13:45:43;25.30;97.00
40556;DHT22;26250;45.422;11.100;2022-08-18T13:48:18;25.30;96.90
40556;DHT22;26250;45.422;11.100;2022-08-18T13:50:46;25.30;97.00
40556;DHT22;26250;45.422;11.100;2022-08-18T13:53:18;25.30;97.30
40556;DHT22;26250;45.422;11.100;2022-08-18T13:55:47;25.40;98.10
40556;DHT22;26250;45.422;11.100;2022-08-18T13:58:14;25.40;97.60
40556;DHT22;26250;45.422;11.100;2022-08-18T14:00:46;25.40;96.60
40556;DHT22;26250;45.422;11.100;2022-08-18T14:03:15;25.40;96.10
40556;DHT22;26250;45.422;11.100;2022-08-18T14:06:02;25.40;95.50
40556;DHT22;26250;45.422;11.100;2022-08-18T14:08:32;25.40;96.10
40556;DHT22;26250;45.422;11.100;2022-08-18T14:11:02;25.30;93.60
40556;DHT22;26250;45.422;11.100;2022-08-18T14:13:29;25.30;94.00
40556;DHT22;26250;45.422;11.100;2022-08-18T14:16:09;25.30;94.00
40556;DHT22;26250;45.422;11.100;2022-08-18T14:18:44;25.30;94.20
40556;DHT22;26250;45.422;11.100;2022-08-18T14:21:47;25.30;92.80
40556;DHT22;26250;45.422;11.100;2022-08-18T14:24:38;25.30;93.80
40556;DHT22;26250;45.422;11.100;2022-08-18T14:27:29;25.30;93.50
40556;DHT22;26250;45.422;11.100;2022-08-18T14:30:10;25.30;92.90
40556;DHT22;26250;45.422;11.100;2022-08-18T14:32:39;25.30;93.20
40556;DHT22;26250;45.422;11.100;2022-08-18T14:35:15;25.30;93.60
40556;DHT22;26250;45.422;11.100;2022-08-18T14:38:00;25.30;94.60
40556;DHT22;26250;45.422;11.100;2022-08-18T14:40:28;25.40;94.90
40556;DHT22;26250;45.422;11.100;2022-08-18T14:42:57;25.40;94.60
40556;DHT22;26250;45.422;11.100;2022-08-18T14:45:25;25.50;94.00
40556;DHT22;26250;45.422;11.100;2022-08-18T14:48:05;25.40;93.80
40556;DHT22;26250;45.422;11.100;2022-08-18T14:50:38;25.40;94.10
40556;DHT22;26250;45.422;11.100;2022-08-18T14:53:16;25.40;94.70
40556;DHT22;26250;45.422;11.100;2022-08-18T14:55:46;25.40;93.80
40556;DHT22;26250;45.422;11.100;2022-08-18T14:58:18;25.40;94.00
40556;DHT22;26250;45.422;11.100;2022-08-18T15:00:46;25.40;93.60
40556;DHT22;26250;45.422;11.100;2022-08-18T15:03:21;25.40;93.10
40556;DHT22;26250;45.422;11.100;2022-08-18T15:05:58;25.30;92.70
40556;DHT22;26250;45.422;11.100;2022-08-18T15:08:26;25.40;93.00
40556;DHT22;26250;45.422;11.100;2022-08-18T15:10:54;25.40;92.20
40556;DHT22;26250;45.422;11.100;2022-08-18T15:13:23;25.50;93.00
40556;DHT22;26250;45.422;11.100;2022-08-18T15:15:53;25.60;92.00
40556;DHT22;26250;45.422;11.100;2022-08-18T15:18:28;25.60;92.10
40556;DHT22;26250;45.422;11.100;2022-08-18T15:20:57;25.60;91.80
40556;DHT22;26250;45.422;11.100;2022-08-18T15:24:03;25.70;92.30
40556;DHT22;26250;45.422;11.100;2022-08-18T15:26:53;25.70;91.70
40556;DHT22;26250;45.422;11.100;2022-08-18T15:29:24;25.70;90.60
40556;DHT22;26250;45.422;11.100;2022-08-18T15:31:56;25.70;91.00
40556;DHT22;26250;45.422;11.100;2022-08-18T15:34:33;25.70;90.40
40556;DHT22;26250;45.422;11.100;2022-08-18T15:37:14;25.70;90.50
40556;DHT22;26250;45.422;11.100;2022-08-18T15:39:47;25.60;90.70
40556;DHT22;26250;45.422;11.100;2022-08-18T15:42:21;25.70;90.80
40556;DHT22;26250;45.422;11.100;2022-08-18T15:44:49;25.70;90.20
40556;DHT22;26250;45.422;11.100;2022-08-18T15:47:20;25.60;90.00
40556;DHT22;26250;45.422;11.100;2022-08-18T15:49:47;25.70;90.30
40556;DHT22;26250;45.422;11.100;2022-08-18T15:52:16;25.70;90.40
40556;DHT22;26250;45.422;11.100;2022-08-18T15:54:45;25.70;89.00
40556;DHT22;26250;45.422;11.100;2022-08-18T15:57:16;25.70;88.10
40556;DHT22;26250;45.422;11.100;2022-08-18T16:00:03;25.70;88.50
40556;DHT22;26250;45.422;11.100;2022-08-18T16:02:38;25.70;88.60
40556;DHT22;26250;45.422;11.100;2022-08-18T16:05:06;25.70;87.50
40556;DHT22;26250;45.422;11.100;2022-08-18T16:07:36;25.70;86.70
40556;DHT22;26250;45.422;11.100;2022-08-18T16:10:09;25.70;86.50
40556;DHT22;26250;45.422;11.100;2022-08-18T16:12:36;25.70;87.20
40556;DHT22;26250;45.422;11.100;2022-08-18T16:15:15;25.70;87.90
40556;DHT22;26250;45.422;11.100;2022-08-18T16:17:48;25.70;87.00
40556;DHT22;26250;45.422;11.100;2022-08-18T16:20:16;25.70;87.20
40556;DHT22;26250;45.422;11.100;2022-08-18T16:23:02;25.80;86.30
40556;DHT22;26250;45.422;11.100;2022-08-18T16:25:29;25.80;86.20
40556;DHT22;26250;45.422;11.100;2022-08-18T16:27:59;25.80;85.30
40556;DHT22;26250;45.422;11.100;2022-08-18T16:30:28;25.70;84.80
40556;DHT22;26250;45.422;11.100;2022-08-18T16:32:59;25.80;85.00
40556;DHT22;26250;45.422;11.100;2022-08-18T16:35:29;25.80;85.00
40556;DHT22;26250;45.422;11.100;2022-08-18T16:38:01;25.80;85.60
40556;DHT22;26250;45.422;11.100;2022-08-18T16:40:30;25.70;85.00
40556;DHT22;26250;45.422;11.100;2022-08-18T16:42:57;25.80;83.90
40556;DHT22;26250;45.422;11.100;2022-08-18T16:45:26;25.80;84.30
40556;DHT22;26250;45.422;11.100;2022-08-18T16:47:54;25.80;84.40
40556;DHT22;26250;45.422;11.100;2022-08-18T16:50:21;25.80;84.40
40556;DHT22;26250;45.422;11.100;2022-08-18T16:52:49;25.80;85.20
40556;DHT22;26250;45.422;11.100;2022-08-18T16:55:16;25.90;85.70
40556;DHT22;26250;45.422;11.100;2022-08-18T16:57:43;25.90;83.20
40556;DHT22;26250;45.422;11.100;2022-08-18T17:00:31;25.90;85.00
40556;DHT22;26250;45.422;11.100;2022-08-18T17:03:23;25.90;85.00
40556;DHT22;26250;45.422;11.100;2022-08-18T17:06:12;25.90;84.50
40556;DHT22;26250;45.422;11.100;2022-08-18T17:08:40;26.00;84.20
40556;DHT22;26250;45.422;11.100;2022-08-18T17:11:14;26.00;84.10
40556;DHT22;26250;45.422;11.100;2022-08-18T17:13:42;26.00;83.80
40556;DHT22;26250;45.422;11.100;2022-08-18T17:16:11;26.10;83.30
40556;DHT22;26250;45.422;11.100;2022-08-18T17:18:38;26.00;84.00
40556;DHT22;26250;45.422;11.100;2022-08-18T17:21:07;26.00;84.30
40556;DHT22;26250;45.422;11.100;2022-08-18T17:23:34;26.00;84.70
40556;DHT22;26250;45.422;11.100;2022-08-18T17:26:07;26.10;84.40
40556;DHT22;26250;45.422;11.100;2022-08-18T17:28:42;26.10;84.60
40556;DHT22;26250;45.422;11.100;2022-08-18T17:31:19;26.10;85.20
40556;DHT22;26250;45.422;11.100;2022-08-18T17:33:48;26.10;86.00
40556;DHT22;26250;45.422;11.100;2022-08-18T17:36:30;26.00;86.30
40556;DHT22;26250;45.422;11.100;2022-08-18T17:39:01;26.00;87.00
40556;DHT22;26250;45.422;11.100;2022-08-18T17:41:28;25.90;87.30
40556;DHT22;26250;45.422;11.100;2022-08-18T17:43:57;25.90;88.00
40556;DHT22;26250;45.422;11.100;2022-08-18T17:46:32;25.80;89.00
40556;DHT22;26250;45.422;11.100;2022-08-18T17:49:21;25.80;88.80
40556;DHT22;26250;45.422;11.100;2022-08-18T17:51:50;25.70;89.40
40556;DHT22;26250;45.422;11.100;2022-08-18T17:54:37;25.70;90.10
40556;DHT22;26250;45.422;11.100;2022-08-18T17:57:20;25.70;90.40
40556;DHT22;26250;45.422;11.100;2022-08-18T18:02:39;25.70;90.50
40556;DHT22;26250;45.422;11.100;2022-08-18T18:05:09;25.60;90.90
40556;DHT22;26250;45.422;11.100;2022-08-18T18:10:06;25.60;91.10
40556;DHT22;26250;45.422;11.100;2022-08-18T18:12:35;25.60;91.20
40556;DHT22;26250;45.422;11.100;2022-08-18T18:15:13;25.50;91.30
40556;DHT22;26250;45.422;11.100;2022-08-18T18:17:46;25.60;91.40
40556;DHT22;26250;45.422;11.100;2022-08-18T18:20:33;25.50;91.20
40556;DHT22;26250;45.422;11.100;2022-08-18T18:23:21;25.60;90.90
40556;DHT22;26250;45.422;11.100;2022-08-18T18:25:49;25.60;90.90
40556;DHT22;26250;45.422;11.100;2022-08-18T18:28:33;25.60;91.10
40556;DHT22;26250;45.422;11.100;2022-08-18T18:31:30;25.50;91.10
40556;DHT22;26250;45.422;11.100;2022-08-18T18:34:01;25.50;91.60
40556;DHT22;26250;45.422;11.100;2022-08-18T18:36:33;25.40;91.90
40556;DHT22;26250;45.422;11.100;2022-08-18T18:39:32;25.40;91.80
40556;DHT22;26250;45.422;11.100;2022-08-18T18:42:23;25.30;91.80
40556;DHT22;26250;45.422;11.100;2022-08-18T18:44:59;25.40;91.80